createdAt,value
2022-10-04T00:01:27.865Z,10.13
2022-10-04T00:04:06.976Z,10.82
2022-10-04T00:06:36.075Z,9.55
2022-10-04T00:09:08.895Z,9.70
2022-10-04T00:11:38.906Z,9.48
2022-10-04T00:14:09.449Z,10.60
2022-10-04T00:16:40.527Z,6.70
2022-10-04T00:22:27.588Z,9.30
2022-10-04T00:25:19.942Z,8.90
2022-10-04T00:28:25.696Z,9.90
2022-10-04T00:31:22.090Z,5.88
2022-10-04T00:33:57.168Z,9.02
2022-10-04T00:36:46.732Z,6.82
2022-10-04T00:39:25.522Z,7.72
2022-10-04T00:42:09.607Z,7.53
2022-10-04T00:44:44.418Z,6.88
2022-10-04T00:47:24.127Z,7.82
2022-10-04T00:49:57.221Z,4.47
2022-10-04T00:52:28.059Z,9.32
2022-10-04T00:54:59.022Z,6.78
2022-10-04T00:57:29.549Z,11.77
2022-10-04T00:59:59.850Z,8.70
2022-10-04T01:02:30.851Z,10.15
2022-10-04T01:05:02.755Z,6.95
2022-10-04T01:07:34.518Z,6.78
2022-10-04T01:10:05.755Z,10.95
2022-10-04T01:12:41.200Z,7.70
2022-10-04T01:15:14.343Z,12.20
2022-10-04T01:17:42.362Z,5.57
2022-10-04T01:23:05.548Z,8.55
2022-10-04T01:25:49.230Z,8.63
2022-10-04T01:28:17.836Z,9.77
2022-10-04T01:30:46.363Z,8.35
2022-10-04T01:33:14.825Z,7.97
2022-10-04T01:35:42.965Z,11.05
2022-10-04T01:38:12.987Z,12.00
2022-10-04T01:40:45.848Z,10.40
2022-10-04T01:43:15.892Z,9.75
2022-10-04T01:45:48.047Z,8.75
2022-10-04T01:48:18.584Z,10.25
2022-10-04T01:50:51.465Z,10.05
2022-10-04T01:53:23.893Z,9.00
2022-10-04T01:55:53.692Z,6.13
2022-10-04T01:58:24.112Z,9.55
2022-10-04T02:00:55.809Z,6.05
2022-10-04T02:03:29.176Z,7.65
2022-10-04T02:06:00.680Z,10.68
2022-10-04T02:08:32.491Z,9.88
2022-10-04T02:11:01.884Z,10.20
2022-10-04T02:13:35.006Z,7.97
2022-10-04T02:16:04.081Z,11.18
2022-10-04T02:18:34.308Z,7.55
2022-10-04T02:21:02.631Z,10.00
2022-10-04T02:23:32.596Z,5.38
2022-10-04T02:26:00.914Z,7.35
2022-10-04T02:28:29.127Z,7.68
2022-10-04T02:31:15.281Z,11.02
2022-10-04T02:33:45.160Z,9.15
2022-10-04T02:36:14.015Z,9.85
2022-10-04T02:38:46.937Z,8.80
2022-10-04T02:41:22.448Z,12.52
2022-10-04T02:43:53.285Z,9.10
2022-10-04T02:46:25.350Z,12.07
2022-10-04T02:48:56.388Z,12.57
2022-10-04T02:51:27.181Z,10.10
2022-10-04T02:54:05.806Z,8.10
2022-10-04T02:56:34.665Z,12.05
2022-10-04T02:59:03.983Z,11.52
2022-10-04T03:01:43.908Z,9.10
2022-10-04T03:04:15.141Z,11.00
2022-10-04T03:06:46.071Z,11.30
2022-10-04T03:09:16.752Z,14.20
2022-10-04T03:11:46.625Z,15.63
2022-10-04T03:14:17.184Z,11.27
2022-10-04T03:16:46.919Z,9.57
2022-10-04T03:19:17.181Z,9.30
2022-10-04T03:21:47.271Z,13.38
2022-10-04T03:24:19.775Z,10.13
2022-10-04T03:26:49.664Z,11.48
2022-10-04T03:29:19.855Z,10.35
2022-10-04T03:31:49.973Z,8.27
2022-10-04T03:34:20.115Z,9.02
2022-10-04T03:36:50.278Z,11.80
2022-10-04T03:39:28.230Z,10.63
2022-10-04T03:41:57.907Z,13.40
2022-10-04T03:44:26.079Z,9.27
2022-10-04T03:46:54.264Z,13.07
2022-10-04T03:49:27.430Z,14.90
2022-10-04T03:51:55.631Z,12.63
2022-10-04T03:54:28.023Z,12.32
2022-10-04T03:56:56.886Z,12.43
2022-10-04T03:59:26.614Z,10.68
2022-10-04T04:02:04.442Z,10.93
2022-10-04T04:04:41.859Z,11.05
2022-10-04T04:07:14.301Z,8.65
2022-10-04T04:09:46.377Z,9.20
2022-10-04T04:12:18.042Z,10.93
2022-10-04T04:14:48.208Z,11.75
2022-10-04T04:17:31.763Z,6.70
2022-10-04T04:20:06.923Z,7.13
2022-10-04T04:22:37.879Z,8.30
2022-10-04T04:25:09.828Z,7.53
2022-10-04T04:27:39.999Z,8.43
2022-10-04T04:30:09.860Z,8.00
2022-10-04T04:32:40.311Z,7.45
2022-10-04T04:35:22.497Z,6.88
2022-10-04T04:38:05.565Z,11.48
2022-10-04T04:40:35.311Z,7.57
2022-10-04T04:43:04.083Z,7.95
2022-10-04T04:45:34.105Z,12.18
2022-10-04T04:48:03.996Z,6.90
2022-10-04T04:50:35.863Z,7.93
2022-10-04T04:53:06.945Z,10.23
2022-10-04T04:58:27.945Z,9.15
2022-10-04T05:00:59.094Z,9.40
2022-10-04T05:03:30.054Z,8.57
2022-10-04T05:06:02.948Z,10.75
2022-10-04T05:08:34.097Z,15.13
2022-10-04T05:11:13.023Z,9.25
2022-10-04T05:13:43.338Z,10.32
2022-10-04T05:16:13.547Z,9.03
2022-10-04T05:18:41.707Z,11.40
2022-10-04T05:21:14.628Z,8.98
2022-10-04T05:23:43.060Z,7.78
2022-10-04T05:26:14.715Z,6.72
2022-10-04T05:28:45.781Z,11.23
2022-10-04T05:31:37.436Z,11.25
2022-10-04T05:34:16.629Z,8.23
2022-10-04T05:36:56.845Z,10.43
2022-10-04T05:39:28.338Z,10.38
2022-10-04T05:42:02.969Z,7.53
2022-10-04T05:44:33.219Z,10.05
2022-10-04T05:47:03.447Z,10.65
2022-10-04T05:49:36.115Z,11.90
2022-10-04T05:52:07.716Z,10.30
2022-10-04T05:57:31.527Z,8.95
2022-10-04T06:00:20.796Z,11.40
2022-10-04T06:03:11.245Z,12.45
2022-10-04T06:05:55.075Z,10.80
2022-10-04T06:08:31.948Z,11.50
2022-10-04T06:11:08.973Z,10.55
2022-10-04T06:14:15.580Z,10.25
2022-10-04T06:17:00.084Z,12.75
2022-10-04T06:19:58.449Z,8.10
2022-10-04T06:22:27.752Z,10.50
2022-10-04T06:24:58.805Z,13.95
2022-10-04T06:27:31.637Z,15.07
2022-10-04T06:30:04.509Z,12.77
2022-10-04T06:32:58.546Z,11.80
2022-10-04T06:35:41.620Z,9.23
2022-10-04T06:38:47.209Z,11.38
2022-10-04T06:41:28.551Z,11.15
2022-10-04T06:44:22.151Z,12.32
2022-10-04T06:46:52.041Z,12.18
2022-10-04T06:49:33.460Z,30.73
2022-10-04T06:52:27.912Z,10.13
2022-10-04T06:55:42.203Z,13.13
2022-10-04T06:58:35.393Z,12.23
2022-10-04T07:01:06.017Z,9.95
2022-10-04T07:03:40.455Z,11.75
2022-10-04T07:06:11.770Z,9.30
2022-10-04T07:08:45.224Z,9.20
2022-10-04T07:11:15.792Z,7.82
2022-10-04T07:13:50.812Z,9.43
2022-10-04T07:16:38.265Z,14.23
2022-10-04T07:19:29.636Z,11.13
2022-10-04T07:22:03.438Z,13.43
2022-10-04T07:24:48.217Z,9.75
2022-10-04T07:27:18.845Z,12.05
2022-10-04T07:29:52.332Z,11.75
2022-10-04T07:32:23.369Z,13.48
2022-10-04T07:34:55.641Z,9.57
2022-10-04T07:37:27.421Z,8.77
2022-10-04T07:39:58.929Z,11.95
2022-10-04T07:42:30.735Z,9.52
2022-10-04T07:45:06.327Z,11.88
2022-10-04T07:47:34.575Z,10.27
2022-10-04T07:50:17.472Z,13.15
2022-10-04T07:52:57.199Z,11.70
2022-10-04T07:55:30.072Z,8.80
2022-10-04T07:58:07.421Z,10.63
2022-10-04T08:00:41.798Z,8.57
2022-10-04T08:03:19.267Z,8.52
2022-10-04T08:05:52.373Z,10.15
2022-10-04T08:08:32.305Z,7.45
2022-10-04T08:11:12.924Z,10.60
2022-10-04T08:13:51.240Z,9.15
2022-10-04T08:16:36.132Z,9.18
2022-10-04T08:19:28.783Z,7.32
2022-10-04T08:22:01.806Z,7.88
2022-10-04T08:24:37.520Z,7.05
2022-10-04T08:27:26.485Z,4.45
2022-10-04T08:30:05.498Z,5.65
2022-10-04T08:32:54.829Z,6.15
2022-10-04T08:35:35.921Z,4.65
2022-10-04T08:38:42.586Z,3.30
2022-10-04T08:41:48.226Z,7.85
2022-10-04T08:44:46.003Z,8.98
2022-10-04T08:47:28.842Z,6.28
2022-10-04T08:50:19.671Z,8.32
2022-10-04T08:52:57.214Z,6.78
2022-10-04T08:55:42.748Z,6.68
2022-10-04T08:58:21.411Z,7.35
2022-10-04T09:01:08.064Z,4.72
2022-10-04T09:04:01.778Z,3.30
2022-10-04T09:06:44.679Z,6.03
2022-10-04T09:10:00.684Z,2.97
2022-10-04T09:12:45.269Z,5.18
2022-10-04T09:15:44.540Z,6.03
2022-10-04T09:18:23.210Z,8.15
2022-10-04T09:20:59.188Z,4.80
2022-10-04T09:24:09.301Z,6.80
2022-10-04T09:26:46.090Z,8.32
2022-10-04T09:29:49.750Z,4.72
2022-10-04T09:32:49.082Z,7.43
2022-10-04T09:36:04.847Z,4.85
2022-10-04T09:39:25.276Z,5.55
2022-10-04T09:42:02.251Z,6.05
2022-10-04T09:44:57.152Z,6.30
2022-10-04T09:47:37.850Z,5.60
2022-10-04T09:53:21.348Z,4.53
2022-10-04T09:56:09.292Z,4.57
2022-10-04T09:59:12.555Z,4.82
2022-10-04T10:01:59.695Z,4.82
2022-10-04T10:04:39.839Z,4.78
2022-10-04T10:07:21.862Z,4.20
2022-10-04T10:10:15.200Z,4.65
2022-10-04T10:13:20.406Z,6.05
2022-10-04T10:15:59.652Z,4.00
2022-10-04T10:18:34.671Z,4.25
2022-10-04T10:21:19.805Z,7.72
2022-10-04T10:24:08.881Z,5.18
2022-10-04T10:27:10.038Z,6.97
2022-10-04T10:30:07.312Z,3.03
2022-10-04T10:33:32.748Z,4.65
2022-10-04T10:36:30.379Z,6.03
2022-10-04T10:39:24.140Z,4.93
2022-10-04T10:42:11.165Z,2.75
2022-10-04T10:45:03.247Z,3.70
2022-10-04T10:47:40.070Z,4.15
2022-10-04T10:50:21.729Z,5.40
2022-10-04T10:53:12.372Z,4.82
2022-10-04T10:58:53.779Z,4.40
2022-10-04T11:01:39.810Z,3.38
2022-10-04T11:04:32.119Z,3.60
2022-10-04T11:07:16.472Z,3.88
2022-10-04T11:10:37.266Z,3.95
2022-10-04T11:13:25.872Z,6.47
2022-10-04T11:16:19.767Z,3.53
2022-10-04T11:19:16.707Z,2.95
2022-10-04T11:22:09.703Z,3.85
2022-10-04T11:24:56.271Z,3.17
2022-10-04T11:27:29.830Z,2.55
2022-10-04T11:30:25.208Z,2.65
2022-10-04T11:33:27.157Z,2.22
2022-10-04T11:36:36.086Z,4.68
2022-10-04T11:39:22.958Z,3.53
2022-10-04T11:41:56.446Z,4.22
2022-10-04T11:44:47.667Z,5.03
2022-10-04T11:47:26.509Z,2.65
2022-10-04T11:50:09.805Z,4.60
2022-10-04T11:53:16.102Z,2.90
2022-10-04T11:55:57.502Z,2.75
2022-10-04T11:58:34.001Z,4.10
2022-10-04T12:01:30.534Z,3.55
2022-10-04T12:04:28.367Z,4.03
2022-10-04T12:07:08.548Z,3.45
2022-10-04T12:09:43.124Z,5.50
2022-10-04T12:12:40.610Z,2.92
2022-10-04T12:15:34.797Z,3.03
2022-10-04T12:18:41.202Z,2.65
2022-10-04T12:21:29.033Z,4.03
2022-10-04T12:24:04.595Z,2.65
2022-10-04T12:26:49.887Z,3.38
2022-10-04T12:29:29.282Z,5.88
2022-10-04T12:31:59.728Z,3.95
2022-10-04T12:34:32.201Z,5.78
2022-10-04T12:37:15.335Z,2.63
2022-10-04T12:40:00.775Z,3.08
2022-10-04T12:42:36.244Z,3.90
2022-10-04T12:45:29.926Z,4.70
2022-10-04T12:48:26.974Z,3.03
2022-10-04T12:51:01.744Z,2.85
2022-10-04T12:53:38.624Z,3.97
2022-10-04T12:56:10.269Z,3.08
2022-10-04T12:58:53.054Z,3.45
2022-10-04T13:01:28.230Z,4.22
2022-10-04T13:04:11.925Z,4.55
2022-10-04T13:06:48.805Z,4.75
2022-10-04T13:09:25.637Z,4.07
2022-10-04T13:12:09.534Z,4.20
2022-10-04T13:14:49.216Z,6.38
2022-10-04T13:17:35.376Z,4.00
2022-10-04T13:20:26.078Z,3.92
2022-10-04T13:22:58.135Z,8.75
2022-10-04T13:25:46.381Z,5.90
2022-10-04T13:28:21.643Z,6.32
2022-10-04T13:30:58.666Z,3.20
2022-10-04T13:33:34.000Z,3.83
2022-10-04T13:36:07.961Z,3.55
2022-10-04T13:39:09.562Z,3.90
2022-10-04T13:41:55.099Z,3.53
2022-10-04T13:44:34.862Z,3.53
2022-10-04T13:47:27.101Z,5.90
2022-10-04T13:50:06.479Z,4.75
2022-10-04T13:53:00.102Z,7.10
2022-10-04T13:55:50.183Z,9.10
2022-10-04T13:58:33.435Z,6.43
2022-10-04T14:01:15.472Z,7.60
2022-10-04T14:03:55.718Z,6.80
2022-10-04T14:06:51.945Z,4.22
2022-10-04T14:09:34.686Z,3.53
2022-10-04T14:12:49.418Z,5.38
2022-10-04T14:15:35.174Z,4.55
2022-10-04T14:18:23.471Z,3.08
2022-10-04T14:21:42.698Z,4.35
2022-10-04T14:24:42.001Z,4.90
2022-10-04T14:27:22.544Z,5.55
2022-10-04T14:30:06.511Z,2.60
2022-10-04T14:33:02.089Z,4.43
2022-10-04T14:35:33.662Z,3.45
2022-10-04T14:38:34.751Z,3.85
2022-10-04T14:41:30.134Z,4.30
2022-10-04T14:44:25.546Z,4.55
2022-10-04T14:47:02.074Z,7.40
2022-10-04T14:49:48.039Z,4.40
2022-10-04T14:52:32.671Z,6.45
2022-10-04T14:55:14.039Z,5.43
2022-10-04T14:58:00.414Z,5.07
2022-10-04T15:00:31.602Z,5.60
2022-10-04T15:03:31.792Z,8.30
2022-10-04T15:06:24.057Z,3.70
2022-10-04T15:09:13.335Z,3.25
2022-10-04T15:11:57.572Z,3.88
2022-10-04T15:14:39.487Z,3.95
2022-10-04T15:17:11.938Z,5.25
2022-10-04T15:20:01.083Z,3.72
2022-10-04T15:22:33.198Z,4.40
2022-10-04T15:25:01.475Z,8.48
2022-10-04T15:27:53.928Z,4.60
2022-10-04T15:30:36.055Z,3.55
2022-10-04T15:33:19.410Z,5.85
2022-10-04T15:36:10.263Z,4.60
2022-10-04T15:38:47.500Z,6.38
2022-10-04T15:41:18.338Z,6.43
2022-10-04T15:43:59.279Z,6.28
2022-10-04T15:46:39.770Z,4.03
2022-10-04T15:49:37.177Z,6.45
2022-10-04T15:52:43.454Z,7.82
2022-10-04T15:55:26.561Z,7.78
2022-10-04T15:58:40.376Z,7.80
2022-10-04T16:01:52.163Z,5.40
2022-10-04T16:04:40.481Z,5.68
2022-10-04T16:07:25.862Z,4.95
2022-10-04T16:09:59.391Z,7.45
2022-10-04T16:12:30.273Z,13.02
2022-10-04T16:15:14.740Z,9.55
2022-10-04T16:17:57.672Z,11.38
2022-10-04T16:20:56.984Z,10.90
2022-10-04T16:23:31.632Z,14.48
2022-10-04T16:26:01.835Z,11.27
2022-10-04T16:29:01.330Z,12.15
2022-10-04T16:31:43.978Z,10.68
2022-10-04T16:34:24.225Z,10.07
2022-10-04T16:36:57.669Z,11.68
2022-10-04T16:39:52.877Z,14.20
2022-10-04T16:42:24.081Z,10.82
2022-10-04T16:44:56.506Z,14.40
2022-10-04T16:47:28.745Z,18.67
2022-10-04T16:49:58.408Z,15.82
2022-10-04T16:52:53.849Z,16.67
2022-10-04T16:55:53.347Z,14.00
2022-10-04T16:58:49.947Z,13.35
2022-10-04T17:01:31.380Z,17.30
2022-10-04T17:04:12.420Z,19.02
2022-10-04T17:06:48.348Z,15.60
2022-10-04T17:09:25.809Z,18.67
2022-10-04T17:12:04.738Z,16.08
2022-10-04T17:15:00.693Z,17.48
2022-10-04T17:17:44.262Z,19.63
2022-10-04T17:20:22.232Z,16.05
2022-10-04T17:23:05.470Z,17.38
2022-10-04T17:25:39.930Z,21.45
2022-10-04T17:28:18.955Z,15.07
2022-10-04T17:30:50.332Z,15.52
2022-10-04T17:33:29.503Z,12.93
2022-10-04T17:36:30.185Z,14.23
2022-10-04T17:39:08.749Z,14.15
2022-10-04T17:41:59.055Z,14.68
2022-10-04T17:44:34.354Z,17.63
2022-10-04T17:47:07.095Z,15.77
2022-10-04T17:50:05.372Z,14.30
2022-10-04T17:53:01.346Z,16.75
2022-10-04T17:55:39.422Z,15.07
2022-10-04T17:58:14.205Z,13.57
2022-10-04T18:00:54.105Z,15.50
2022-10-04T18:03:25.098Z,14.18
2022-10-04T18:05:56.079Z,17.48
2022-10-04T18:08:36.651Z,16.20
2022-10-04T18:11:08.108Z,14.10
2022-10-04T18:13:41.038Z,15.15
2022-10-04T18:16:15.331Z,15.20
2022-10-04T18:18:44.768Z,12.52
2022-10-04T18:21:29.697Z,16.05
2022-10-04T18:24:02.125Z,12.95
2022-10-04T18:26:35.426Z,19.70
2022-10-04T18:29:11.200Z,15.02
2022-10-04T18:31:41.515Z,16.25
2022-10-04T18:34:28.348Z,18.25
2022-10-04T18:37:07.124Z,16.30
2022-10-04T18:39:50.553Z,17.42
2022-10-04T18:42:25.122Z,17.08
2022-10-04T18:45:04.468Z,15.25
2022-10-04T18:47:43.451Z,15.45
2022-10-04T18:50:22.544Z,15.32
2022-10-04T18:53:07.191Z,13.18
2022-10-04T18:55:43.733Z,17.27
2022-10-04T18:58:41.851Z,17.70
2022-10-04T19:01:46.078Z,18.10
2022-10-04T19:04:22.157Z,19.80
2022-10-04T19:06:52.889Z,20.65
2022-10-04T19:09:30.486Z,19.77
2022-10-04T19:12:04.890Z,24.45
2022-10-04T19:14:39.428Z,22.42
2022-10-04T19:17:18.209Z,22.38
2022-10-04T19:19:55.657Z,18.92
2022-10-04T19:22:36.623Z,21.85
2022-10-04T19:25:19.933Z,18.63
2022-10-04T19:27:51.715Z,20.17
2022-10-04T19:30:21.908Z,16.48
2022-10-04T19:33:02.475Z,19.05
2022-10-04T19:35:44.112Z,15.40
2022-10-04T19:38:22.468Z,17.42
2022-10-04T19:40:54.131Z,17.77
2022-10-04T19:43:26.967Z,21.15
2022-10-04T19:46:07.245Z,19.83
2022-10-04T19:48:42.515Z,25.55
2022-10-04T19:51:16.428Z,24.88
2022-10-04T19:53:46.072Z,24.73
2022-10-04T19:56:18.337Z,23.15
2022-10-04T19:58:50.678Z,23.90
2022-10-04T20:01:23.249Z,21.80
2022-10-04T20:04:07.978Z,23.65
2022-10-04T20:06:40.740Z,21.48
2022-10-04T20:09:25.168Z,19.42
2022-10-04T20:11:53.851Z,24.15
2022-10-04T20:14:47.140Z,28.60
2022-10-04T20:17:33.637Z,25.40
2022-10-04T20:20:03.380Z,27.38
2022-10-04T20:22:55.745Z,27.92
2022-10-04T20:26:00.234Z,19.98
2022-10-04T20:28:40.181Z,23.80
2022-10-04T20:31:09.845Z,18.73
2022-10-04T20:33:56.092Z,24.52
2022-10-04T20:36:54.336Z,20.05
2022-10-04T20:39:58.832Z,22.38
2022-10-04T20:42:33.869Z,18.13
2022-10-04T20:45:03.947Z,19.80
2022-10-04T20:47:39.555Z,20.55
2022-10-04T20:50:16.203Z,21.08
2022-10-04T20:52:47.123Z,19.88
2022-10-04T20:55:27.235Z,21.25
2022-10-04T20:58:00.300Z,21.63
2022-10-04T21:00:33.742Z,17.17
2022-10-04T21:03:16.665Z,21.65
2022-10-04T21:05:49.857Z,20.40
2022-10-04T21:08:26.235Z,17.48
2022-10-04T21:11:16.941Z,22.92
2022-10-04T21:13:57.823Z,22.83
2022-10-04T21:16:47.262Z,19.80
2022-10-04T21:19:44.254Z,20.48
2022-10-04T21:22:33.108Z,22.10
2022-10-04T21:25:02.941Z,21.35
2022-10-04T21:27:32.302Z,19.75
2022-10-04T21:30:02.832Z,20.65
2022-10-04T21:32:35.641Z,19.88
2022-10-04T21:35:04.136Z,24.58
2022-10-04T21:37:32.802Z,21.77
2022-10-04T21:40:01.078Z,20.25
2022-10-04T21:42:29.235Z,21.48
2022-10-04T21:44:57.626Z,16.73
2022-10-04T21:47:27.406Z,21.55
2022-10-04T21:49:55.642Z,25.17
2022-10-04T21:52:24.161Z,20.67
2022-10-04T21:54:52.580Z,20.42
2022-10-04T21:57:22.322Z,19.70
2022-10-04T21:59:50.840Z,19.45
2022-10-04T22:02:19.048Z,15.45
2022-10-04T22:04:48.605Z,19.75
2022-10-04T22:07:16.864Z,17.23
2022-10-04T22:09:44.994Z,17.05
2022-10-04T22:12:13.098Z,21.25
2022-10-04T22:14:41.410Z,23.67
2022-10-04T22:17:09.668Z,20.45
2022-10-04T22:19:37.901Z,31.08
2022-10-04T22:22:07.611Z,25.23
2022-10-04T22:24:37.216Z,34.28
2022-10-04T22:27:11.885Z,39.80
2022-10-04T22:29:40.240Z,34.05
2022-10-04T22:32:12.880Z,34.33
2022-10-04T22:34:41.262Z,32.88
2022-10-04T22:37:12.844Z,31.60
2022-10-04T22:39:41.192Z,35.03
2022-10-04T22:42:14.131Z,31.92
2022-10-04T22:44:42.796Z,38.15
2022-10-04T22:47:13.258Z,35.03
2022-10-04T22:49:43.875Z,32.40
2022-10-04T22:52:16.438Z,39.50
2022-10-04T22:54:46.597Z,35.63
2022-10-04T22:57:16.746Z,33.25
2022-10-04T22:59:46.860Z,33.42
2022-10-04T23:02:16.961Z,32.35
2022-10-04T23:04:47.675Z,40.28
2022-10-04T23:07:17.562Z,33.23
2022-10-04T23:09:45.791Z,36.95
2022-10-04T23:12:14.160Z,30.67
2022-10-04T23:14:42.653Z,33.70
2022-10-04T23:17:25.430Z,34.75
2022-10-04T23:19:55.320Z,29.85
2022-10-04T23:22:28.239Z,36.00
2022-10-04T23:24:57.358Z,41.85
2022-10-04T23:27:25.715Z,36.45
2022-10-04T23:29:59.666Z,34.80
2022-10-04T23:32:28.421Z,41.38
2022-10-04T23:34:57.119Z,38.10
2022-10-04T23:37:28.790Z,39.03
2022-10-04T23:39:57.144Z,36.85
2022-10-04T23:42:29.739Z,34.83
2022-10-04T23:44:59.205Z,36.92
2022-10-04T23:47:32.760Z,42.28
2022-10-04T23:50:01.326Z,42.45
2022-10-04T23:52:36.415Z,40.90
2022-10-04T23:55:15.779Z,38.08
2022-10-04T23:57:43.847Z,39.58
